createdAt,value
2023-02-28T00:01:55.672Z,9.15
2023-02-28T00:07:17.514Z,9.82
2023-02-28T00:12:39.983Z,9.65
2023-02-28T00:18:02.269Z,9.70
2023-02-28T00:23:24.431Z,8.98
2023-02-28T00:28:46.453Z,9.30
2023-02-28T00:34:08.389Z,8.98
2023-02-28T00:39:30.259Z,7.78
2023-02-28T00:44:52.153Z,8.13
2023-02-28T00:50:14.060Z,8.75
2023-02-28T00:55:35.926Z,8.45
2023-02-28T01:00:57.915Z,8.60
2023-02-28T01:06:19.862Z,8.30
2023-02-28T01:11:42.664Z,7.88
2023-02-28T01:17:04.752Z,9.20
2023-02-28T01:22:26.695Z,9.32
2023-02-28T01:27:48.616Z,8.70
2023-02-28T01:33:10.476Z,10.05
2023-02-28T01:38:32.910Z,8.27
2023-02-28T01:44:04.689Z,10.55
2023-02-28T01:49:26.666Z,11.57
2023-02-28T01:54:55.148Z,12.95
2023-02-28T02:00:20.769Z,12.75
2023-02-28T02:05:43.061Z,14.70
2023-02-28T02:11:11.427Z,19.10
2023-02-28T02:16:53.347Z,18.65
2023-02-28T02:22:18.183Z,15.52
2023-02-28T02:27:46.045Z,15.00
2023-02-28T02:33:35.349Z,13.27
2023-02-28T02:39:06.163Z,13.80
2023-02-28T02:44:46.529Z,18.75
2023-02-28T02:50:14.903Z,19.25
2023-02-28T02:55:42.253Z,16.05
2023-02-28T03:01:05.708Z,14.05
2023-02-28T03:06:27.837Z,14.13
2023-02-28T03:11:51.409Z,20.85
2023-02-28T03:18:09.635Z,20.15
2023-02-28T03:23:46.266Z,17.27
2023-02-28T03:29:12.696Z,16.13
2023-02-28T03:34:39.389Z,13.15
2023-02-28T03:40:07.703Z,14.60
2023-02-28T03:45:33.481Z,18.08
2023-02-28T03:50:58.602Z,13.93
2023-02-28T03:56:25.677Z,11.80
2023-02-28T04:01:50.050Z,12.00
2023-02-28T04:07:12.675Z,12.13
2023-02-28T04:12:34.698Z,11.48
2023-02-28T04:17:56.652Z,12.98
2023-02-28T04:23:18.522Z,13.55
2023-02-28T04:28:40.337Z,13.25
2023-02-28T04:34:02.767Z,12.02
2023-02-28T04:39:25.552Z,10.10
2023-02-28T04:44:47.461Z,9.20
2023-02-28T04:50:09.799Z,10.65
2023-02-28T04:55:31.649Z,11.07
2023-02-28T05:00:54.694Z,11.82
2023-02-28T05:06:17.727Z,12.38
2023-02-28T05:11:40.691Z,12.05
2023-02-28T05:17:02.614Z,11.55
2023-02-28T05:22:24.624Z,12.52
2023-02-28T05:27:46.798Z,12.15
2023-02-28T05:33:12.115Z,11.60
2023-02-28T05:38:34.062Z,11.93
2023-02-28T05:43:56.021Z,12.70
2023-02-28T05:49:17.985Z,12.70
2023-02-28T05:54:39.845Z,12.75
2023-02-28T06:00:02.287Z,11.77
2023-02-28T06:05:24.519Z,12.13
2023-02-28T06:10:46.441Z,13.65
2023-02-28T06:16:11.476Z,12.10
2023-02-28T06:21:33.613Z,11.45
2023-02-28T06:26:55.594Z,14.10
2023-02-28T06:32:17.518Z,13.25
2023-02-28T06:37:41.714Z,12.93
2023-02-28T06:43:04.761Z,12.23
2023-02-28T06:48:27.936Z,11.82
2023-02-28T06:53:49.893Z,11.07
2023-02-28T06:59:11.806Z,11.40
2023-02-28T07:04:33.638Z,10.13
2023-02-28T07:09:55.549Z,10.10
2023-02-28T07:15:17.565Z,11.23
2023-02-28T07:20:39.399Z,10.73
2023-02-28T07:26:01.307Z,9.85
2023-02-28T07:31:23.300Z,8.63
2023-02-28T07:36:45.420Z,7.53
2023-02-28T07:42:07.918Z,6.40
2023-02-28T07:47:32.708Z,7.10
2023-02-28T07:52:54.710Z,6.25
2023-02-28T07:58:16.655Z,4.85
2023-02-28T08:03:40.120Z,4.53
2023-02-28T08:09:01.946Z,5.20
2023-02-28T08:14:23.795Z,5.00
2023-02-28T08:19:48.772Z,5.85
2023-02-28T08:25:10.894Z,5.93
2023-02-28T08:30:33.237Z,7.55
2023-02-28T08:35:56.137Z,5.82
2023-02-28T08:41:18.524Z,5.57
2023-02-28T08:46:40.441Z,5.57
2023-02-28T08:52:02.322Z,6.03
2023-02-28T08:57:24.294Z,5.45
2023-02-28T09:02:46.163Z,6.10
2023-02-28T09:08:08.038Z,6.63
2023-02-28T09:13:30.888Z,6.05
2023-02-28T09:18:52.932Z,6.18
2023-02-28T09:24:14.778Z,6.32
2023-02-28T09:29:36.825Z,6.85
2023-02-28T09:34:58.652Z,6.13
2023-02-28T09:40:23.325Z,6.28
2023-02-28T09:46:01.100Z,5.90
2023-02-28T09:51:44.922Z,6.25
2023-02-28T09:57:35.952Z,6.38
2023-02-28T10:03:05.359Z,7.03
2023-02-28T10:08:30.224Z,6.65
2023-02-28T10:14:02.086Z,7.38
2023-02-28T10:19:33.986Z,7.40
2023-02-28T10:24:58.462Z,7.60
2023-02-28T10:30:20.576Z,7.80
2023-02-28T10:35:42.496Z,8.20
2023-02-28T10:41:17.493Z,7.65
2023-02-28T10:46:41.621Z,8.35
2023-02-28T10:52:03.584Z,8.75
2023-02-28T10:57:25.551Z,8.75
2023-02-28T11:02:47.448Z,9.23
2023-02-28T11:08:16.115Z,9.90
2023-02-28T11:13:38.324Z,9.38
2023-02-28T11:19:00.617Z,9.32
2023-02-28T11:24:30.865Z,8.85
2023-02-28T11:29:52.799Z,8.50
2023-02-28T11:35:36.050Z,9.20
2023-02-28T11:40:57.880Z,9.55
2023-02-28T11:46:42.036Z,10.45
2023-02-28T11:52:42.404Z,9.67
2023-02-28T11:58:25.845Z,8.60
2023-02-28T12:03:50.525Z,8.65
2023-02-28T12:09:38.754Z,9.80
2023-02-28T12:15:17.843Z,9.00
2023-02-28T12:20:58.030Z,9.23
2023-02-28T12:26:41.827Z,9.57
2023-02-28T12:32:13.977Z,9.80
2023-02-28T12:37:44.274Z,8.52
2023-02-28T12:43:10.488Z,9.70
2023-02-28T12:48:49.525Z,9.23
2023-02-28T12:54:33.309Z,9.25
2023-02-28T13:00:03.287Z,9.90
2023-02-28T13:05:56.404Z,9.13
2023-02-28T13:11:48.825Z,9.32
2023-02-28T13:17:10.641Z,9.15
2023-02-28T13:22:47.527Z,10.13
2023-02-28T13:28:15.008Z,9.75
2023-02-28T13:33:57.595Z,9.02
2023-02-28T13:39:35.367Z,10.45
2023-02-28T13:45:04.309Z,9.80
2023-02-28T13:50:42.332Z,9.85
2023-02-28T13:56:07.025Z,9.48
2023-02-28T14:02:06.611Z,9.27
2023-02-28T14:07:42.433Z,10.40
2023-02-28T14:13:31.090Z,10.33
2023-02-28T14:18:59.903Z,10.02
2023-02-28T14:24:41.316Z,10.43
2023-02-28T14:30:25.853Z,10.75
2023-02-28T14:36:21.308Z,9.93
2023-02-28T14:41:44.961Z,9.93
2023-02-28T14:47:16.837Z,10.00
2023-02-28T14:52:38.755Z,9.77
2023-02-28T14:58:04.001Z,9.38
2023-02-28T15:03:31.264Z,9.70
2023-02-28T15:09:16.602Z,9.05
2023-02-28T15:14:40.347Z,10.38
2023-02-28T15:20:02.836Z,9.10
2023-02-28T15:25:25.681Z,8.70
2023-02-28T15:31:02.504Z,9.15
2023-02-28T15:36:31.081Z,9.00
2023-02-28T15:41:53.387Z,8.60
2023-02-28T15:47:27.978Z,8.63
2023-02-28T15:52:49.861Z,8.65
2023-02-28T15:58:13.466Z,9.57
2023-02-28T16:03:42.382Z,8.68
2023-02-28T16:09:05.897Z,9.45
2023-02-28T16:14:29.547Z,9.82
2023-02-28T16:19:51.604Z,9.55
2023-02-28T16:25:16.197Z,9.05
2023-02-28T16:30:38.130Z,10.57
2023-02-28T16:36:00.725Z,12.70
2023-02-28T16:41:25.043Z,12.75
2023-02-28T16:46:46.893Z,10.95
2023-02-28T16:52:09.827Z,12.20
2023-02-28T16:57:33.054Z,11.88
2023-02-28T17:02:57.101Z,11.00
2023-02-28T17:08:19.040Z,11.60
2023-02-28T17:13:40.956Z,12.82
2023-02-28T17:19:05.246Z,13.32
2023-02-28T17:24:31.209Z,13.18
2023-02-28T17:29:53.439Z,13.10
2023-02-28T17:35:16.199Z,13.32
2023-02-28T17:40:38.065Z,14.18
2023-02-28T17:46:00.036Z,14.35
2023-02-28T17:51:24.378Z,13.65
2023-02-28T17:56:46.636Z,13.52
2023-02-28T18:02:12.402Z,13.55
2023-02-28T18:07:34.638Z,13.20
2023-02-28T18:12:56.515Z,15.45
2023-02-28T18:18:18.439Z,14.95
2023-02-28T18:23:40.987Z,14.05
2023-02-28T18:29:03.083Z,13.57
2023-02-28T18:34:25.750Z,13.48
2023-02-28T18:39:47.678Z,14.38
2023-02-28T18:45:12.459Z,13.50
2023-02-28T18:50:37.996Z,14.45
2023-02-28T18:56:04.283Z,11.07
2023-02-28T19:01:28.103Z,14.98
2023-02-28T19:06:50.234Z,14.45
2023-02-28T19:12:12.153Z,14.82
2023-02-28T19:17:34.260Z,16.83
2023-02-28T19:22:56.155Z,15.20
2023-02-28T19:28:18.032Z,14.23
2023-02-28T19:33:40.554Z,14.38
2023-02-28T19:39:02.837Z,15.13
2023-02-28T19:44:24.786Z,17.13
2023-02-28T19:49:46.709Z,18.45
2023-02-28T19:55:09.868Z,17.23
2023-02-28T20:00:31.993Z,16.70
2023-02-28T20:06:02.877Z,16.50
2023-02-28T20:11:25.073Z,15.00
2023-02-28T20:16:47.079Z,16.42
2023-02-28T20:22:13.677Z,16.52
2023-02-28T20:27:39.073Z,16.92
2023-02-28T20:33:01.448Z,15.93
2023-02-28T20:38:23.423Z,16.38
2023-02-28T20:43:45.887Z,16.10
2023-02-28T20:49:07.758Z,17.25
2023-02-28T20:54:29.805Z,16.23
2023-02-28T20:59:51.700Z,16.10
2023-02-28T21:05:13.557Z,16.48
2023-02-28T21:10:35.511Z,14.50
2023-02-28T21:15:57.390Z,15.82
2023-02-28T21:21:21.843Z,14.77
2023-02-28T21:26:45.155Z,15.30
2023-02-28T21:32:07.069Z,16.23
2023-02-28T21:37:29.015Z,16.08
2023-02-28T21:42:50.868Z,17.02
2023-02-28T21:48:12.816Z,18.95
2023-02-28T21:53:37.496Z,19.33
2023-02-28T21:59:01.022Z,18.83
2023-02-28T22:04:23.030Z,20.27
2023-02-28T22:09:44.907Z,20.80
2023-02-28T22:15:07.393Z,20.58
2023-02-28T22:20:29.334Z,21.85
2023-02-28T22:25:51.212Z,23.58
2023-02-28T22:31:19.363Z,23.75
2023-02-28T22:36:42.692Z,25.25
2023-02-28T22:42:04.598Z,25.73
2023-02-28T22:47:26.592Z,26.55
2023-02-28T22:52:48.460Z,26.15
2023-02-28T22:58:10.287Z,26.40
2023-02-28T23:03:32.152Z,25.48
2023-02-28T23:08:57.732Z,26.25
2023-02-28T23:14:21.143Z,26.33
2023-02-28T23:19:42.988Z,27.23
2023-02-28T23:25:05.445Z,26.77
2023-02-28T23:30:27.276Z,26.38
2023-02-28T23:35:49.262Z,25.50
2023-02-28T23:41:12.528Z,26.52
2023-02-28T23:46:34.402Z,26.00
2023-02-28T23:51:56.235Z,25.52
2023-02-28T23:57:18.122Z,25.80
